sensor_id;sensor_type;location;lat;lon;timestamp;temperature;humidity
52621;DHT22;38515;53.160;6.990;2024-01-25T00:00:21;7.70;1.00
52621;DHT22;38515;53.160;6.990;2024-01-25T00:02:47;7.40;99.90
52621;DHT22;38515;53.160;6.990;2024-01-25T00:05:12;7.40;1.00
52621;DHT22;38515;53.160;6.990;2024-01-25T00:07:50;7.30;1.00
52621;DHT22;38515;53.160;6.990;2024-01-25T00:10:17;7.20;1.00
52621;DHT22;38515;53.160;6.990;2024-01-25T00:12:43;7.20;46.10
52621;DHT22;38515;53.160;6.990;2024-01-25T00:15:09;7.40;54.90
52621;DHT22;38515;53.160;6.990;2024-01-25T00:17:36;7.30;99.90
52621;DHT22;38515;53.160;6.990;2024-01-25T00:20:02;7.40;99.90
52621;DHT22;38515;53.160;6.990;2024-01-25T00:22:28;7.40;99.90
52621;DHT22;38515;53.160;6.990;2024-01-25T00:24:54;7.40;99.90
52621;DHT22;38515;53.160;6.990;2024-01-25T00:27:20;7.40;1.00
52621;DHT22;38515;53.160;6.990;2024-01-25T00:29:46;8.20;1.00
52621;DHT22;38515;53.160;6.990;2024-01-25T00:32:11;7.30;99.90
52621;DHT22;38515;53.160;6.990;2024-01-25T00:34:37;7.60;99.90
52621;DHT22;38515;53.160;6.990;2024-01-25T00:37:03;7.20;1.00
52621;DHT22;38515;53.160;6.990;2024-01-25T00:39:29;7.10;23.50
52621;DHT22;38515;53.160;6.990;2024-01-25T00:42:02;7.00;99.90
52621;DHT22;38515;53.160;6.990;2024-01-25T00:44:29;6.90;99.90
52621;DHT22;38515;53.160;6.990;2024-01-25T00:46:55;6.90;99.90
52621;DHT22;38515;53.160;6.990;2024-01-25T00:49:21;6.80;99.90
52621;DHT22;38515;53.160;6.990;2024-01-25T00:51:47;6.70;99.90
52621;DHT22;38515;53.160;6.990;2024-01-25T00:54:16;6.70;1.00
52621;DHT22;38515;53.160;6.990;2024-01-25T00:56:42;6.70;99.90
52621;DHT22;38515;53.160;6.990;2024-01-25T00:59:08;6.70;1.00
52621;DHT22;38515;53.160;6.990;2024-01-25T01:01:34;6.70;1.00
52621;DHT22;38515;53.160;6.990;2024-01-25T01:04:00;6.60;99.90
52621;DHT22;38515;53.160;6.990;2024-01-25T01:06:26;6.60;99.90
52621;DHT22;38515;53.160;6.990;2024-01-25T01:08:52;6.40;99.90
52621;DHT22;38515;53.160;6.990;2024-01-25T01:11:18;6.30;1.00
52621;DHT22;38515;53.160;6.990;2024-01-25T01:13:44;6.40;1.00
52621;DHT22;38515;53.160;6.990;2024-01-25T01:16:10;6.50;1.00
52621;DHT22;38515;53.160;6.990;2024-01-25T01:18:36;6.30;3.20
52621;DHT22;38515;53.160;6.990;2024-01-25T01:21:04;6.30;99.90
52621;DHT22;38515;53.160;6.990;2024-01-25T01:23:29;6.30;1.00
52621;DHT22;38515;53.160;6.990;2024-01-25T01:25:55;6.20;47.40
52621;DHT22;38515;53.160;6.990;2024-01-25T01:28:21;6.50;99.90
52621;DHT22;38515;53.160;6.990;2024-01-25T01:30:46;6.20;99.90
52621;DHT22;38515;53.160;6.990;2024-01-25T01:33:12;6.10;99.90
52621;DHT22;38515;53.160;6.990;2024-01-25T01:35:38;6.30;1.00
52621;DHT22;38515;53.160;6.990;2024-01-25T01:38:04;6.20;99.90
52621;DHT22;38515;53.160;6.990;2024-01-25T01:40:29;6.00;99.90
52621;DHT22;38515;53.160;6.990;2024-01-25T01:43:02;6.00;99.90
52621;DHT22;38515;53.160;6.990;2024-01-25T01:45:28;5.90;1.00
52621;DHT22;38515;53.160;6.990;2024-01-25T01:47:55;6.20;1.00
52621;DHT22;38515;53.160;6.990;2024-01-25T01:50:21;6.00;1.00
52621;DHT22;38515;53.160;6.990;2024-01-25T01:52:48;6.00;99.90
52621;DHT22;38515;53.160;6.990;2024-01-25T01:55:15;6.00;1.00
52621;DHT22;38515;53.160;6.990;2024-01-25T01:57:42;6.00;1.00
52621;DHT22;38515;53.160;6.990;2024-01-25T02:00:09;5.90;99.90
52621;DHT22;38515;53.160;6.990;2024-01-25T02:02:35;5.90;1.00
52621;DHT22;38515;53.160;6.990;2024-01-25T02:05:01;5.90;1.00
52621;DHT22;38515;53.160;6.990;2024-01-25T02:07:27;6.00;21.10
52621;DHT22;38515;53.160;6.990;2024-01-25T02:09:53;5.90;99.90
52621;DHT22;38515;53.160;6.990;2024-01-25T02:12:19;5.80;77.00
52621;DHT22;38515;53.160;6.990;2024-01-25T02:14:46;5.80;99.90
52621;DHT22;38515;53.160;6.990;2024-01-25T02:17:11;5.90;99.90
52621;DHT22;38515;53.160;6.990;2024-01-25T02:19:37;5.80;99.90
52621;DHT22;38515;53.160;6.990;2024-01-25T02:22:05;5.70;99.90
52621;DHT22;38515;53.160;6.990;2024-01-25T02:24:31;5.70;99.90
52621;DHT22;38515;53.160;6.990;2024-01-25T02:26:56;5.60;99.90
52621;DHT22;38515;53.160;6.990;2024-01-25T02:29:22;5.80;1.00
52621;DHT22;38515;53.160;6.990;2024-01-25T02:31:48;5.70;99.90
52621;DHT22;38515;53.160;6.990;2024-01-25T02:34:14;5.70;1.00
52621;DHT22;38515;53.160;6.990;2024-01-25T02:36:39;5.70;1.00
52621;DHT22;38515;53.160;6.990;2024-01-25T02:39:05;5.70;1.00
52621;DHT22;38515;53.160;6.990;2024-01-25T02:41:31;5.70;1.00
52621;DHT22;38515;53.160;6.990;2024-01-25T02:43:58;5.70;1.00
52621;DHT22;38515;53.160;6.990;2024-01-25T02:46:23;5.70;1.00
52621;DHT22;38515;53.160;6.990;2024-01-25T02:48:49;5.70;1.00
52621;DHT22;38515;53.160;6.990;2024-01-25T02:51:15;5.70;1.00
52621;DHT22;38515;53.160;6.990;2024-01-25T02:53:41;6.00;1.00
52621;DHT22;38515;53.160;6.990;2024-01-25T02:56:06;5.90;99.90
52621;DHT22;38515;53.160;6.990;2024-01-25T02:58:33;5.70;1.00
52621;DHT22;38515;53.160;6.990;2024-01-25T03:00:58;5.60;1.00
52621;DHT22;38515;53.160;6.990;2024-01-25T03:03:24;5.60;8.50
52621;DHT22;38515;53.160;6.990;2024-01-25T03:05:53;5.60;99.90
52621;DHT22;38515;53.160;6.990;2024-01-25T03:08:18;5.60;99.90
52621;DHT22;38515;53.160;6.990;2024-01-25T03:10:45;5.60;84.30
52621;DHT22;38515;53.160;6.990;2024-01-25T03:13:11;5.60;99.90
52621;DHT22;38515;53.160;6.990;2024-01-25T03:15:37;5.60;99.90
52621;DHT22;38515;53.160;6.990;2024-01-25T03:18:02;5.60;99.90
52621;DHT22;38515;53.160;6.990;2024-01-25T03:20:29;5.60;99.90
52621;DHT22;38515;53.160;6.990;2024-01-25T03:22:54;5.60;1.00
52621;DHT22;38515;53.160;6.990;2024-01-25T03:25:21;5.60;99.90
52621;DHT22;38515;53.160;6.990;2024-01-25T03:27:46;5.90;1.00
52621;DHT22;38515;53.160;6.990;2024-01-25T03:30:12;5.60;99.90
52621;DHT22;38515;53.160;6.990;2024-01-25T03:32:38;5.60;99.90
52621;DHT22;38515;53.160;6.990;2024-01-25T03:35:04;5.50;99.90
52621;DHT22;38515;53.160;6.990;2024-01-25T03:37:29;5.40;99.90
52621;DHT22;38515;53.160;6.990;2024-01-25T03:39:55;5.40;99.90
52621;DHT22;38515;53.160;6.990;2024-01-25T03:42:21;5.30;99.90
52621;DHT22;38515;53.160;6.990;2024-01-25T03:44:46;5.30;1.00
52621;DHT22;38515;53.160;6.990;2024-01-25T03:47:12;5.30;1.00
52621;DHT22;38515;53.160;6.990;2024-01-25T03:49:38;5.20;99.90
52621;DHT22;38515;53.160;6.990;2024-01-25T03:52:04;5.30;50.90
52621;DHT22;38515;53.160;6.990;2024-01-25T03:54:30;5.20;49.60
52621;DHT22;38515;53.160;6.990;2024-01-25T03:56:56;5.10;45.80
52621;DHT22;38515;53.160;6.990;2024-01-25T03:59:21;5.10;91.70
52621;DHT22;38515;53.160;6.990;2024-01-25T04:01:47;5.20;99.90
52621;DHT22;38515;53.160;6.990;2024-01-25T04:04:14;5.10;99.90
52621;DHT22;38515;53.160;6.990;2024-01-25T04:06:42;5.10;99.90
52621;DHT22;38515;53.160;6.990;2024-01-25T04:09:14;5.00;99.90
52621;DHT22;38515;53.160;6.990;2024-01-25T04:11:42;5.00;99.90
52621;DHT22;38515;53.160;6.990;2024-01-25T04:14:08;5.00;99.90
52621;DHT22;38515;53.160;6.990;2024-01-25T04:16:34;4.90;1.00
52621;DHT22;38515;53.160;6.990;2024-01-25T04:19:00;4.90;1.00
52621;DHT22;38515;53.160;6.990;2024-01-25T04:21:27;4.90;1.00
52621;DHT22;38515;53.160;6.990;2024-01-25T04:23:52;4.90;33.80
52621;DHT22;38515;53.160;6.990;2024-01-25T04:26:18;4.90;33.80
52621;DHT22;38515;53.160;6.990;2024-01-25T04:28:44;4.80;99.90
52621;DHT22;38515;53.160;6.990;2024-01-25T04:31:09;4.80;66.40
52621;DHT22;38515;53.160;6.990;2024-01-25T04:33:35;4.80;72.40
52621;DHT22;38515;53.160;6.990;2024-01-25T04:36:03;4.80;99.90
52621;DHT22;38515;53.160;6.990;2024-01-25T04:38:29;4.80;99.90
52621;DHT22;38515;53.160;6.990;2024-01-25T04:40:54;4.80;99.90
52621;DHT22;38515;53.160;6.990;2024-01-25T04:43:20;4.80;99.90
52621;DHT22;38515;53.160;6.990;2024-01-25T04:45:46;5.60;99.90
52621;DHT22;38515;53.160;6.990;2024-01-25T04:48:12;4.70;99.90
52621;DHT22;38515;53.160;6.990;2024-01-25T04:50:37;4.60;99.90
52621;DHT22;38515;53.160;6.990;2024-01-25T04:53:04;4.60;99.90
52621;DHT22;38515;53.160;6.990;2024-01-25T04:55:30;4.60;99.90
52621;DHT22;38515;53.160;6.990;2024-01-25T04:57:56;4.60;1.00
52621;DHT22;38515;53.160;6.990;2024-01-25T05:00:22;4.60;99.90
52621;DHT22;38515;53.160;6.990;2024-01-25T05:02:48;4.50;1.00
52621;DHT22;38515;53.160;6.990;2024-01-25T05:05:14;4.60;1.00
52621;DHT22;38515;53.160;6.990;2024-01-25T05:07:41;5.50;1.00
52621;DHT22;38515;53.160;6.990;2024-01-25T05:10:07;4.50;1.00
52621;DHT22;38515;53.160;6.990;2024-01-25T05:12:33;4.50;1.00
52621;DHT22;38515;53.160;6.990;2024-01-25T05:14:59;4.40;1.00
52621;DHT22;38515;53.160;6.990;2024-01-25T05:17:25;4.80;1.00
52621;DHT22;38515;53.160;6.990;2024-01-25T05:19:51;4.40;1.00
52621;DHT22;38515;53.160;6.990;2024-01-25T05:22:16;4.50;30.50
52621;DHT22;38515;53.160;6.990;2024-01-25T05:24:42;4.40;99.90
52621;DHT22;38515;53.160;6.990;2024-01-25T05:27:08;4.70;75.00
52621;DHT22;38515;53.160;6.990;2024-01-25T05:29:33;4.40;99.90
52621;DHT22;38515;53.160;6.990;2024-01-25T05:31:59;4.40;99.90
52621;DHT22;38515;53.160;6.990;2024-01-25T05:34:25;4.30;99.90
52621;DHT22;38515;53.160;6.990;2024-01-25T05:36:50;4.40;99.90
52621;DHT22;38515;53.160;6.990;2024-01-25T05:39:16;4.40;99.90
52621;DHT22;38515;53.160;6.990;2024-01-25T05:41:42;4.30;99.90
52621;DHT22;38515;53.160;6.990;2024-01-25T05:44:12;4.60;67.70
52621;DHT22;38515;53.160;6.990;2024-01-25T05:46:38;4.20;55.70
52621;DHT22;38515;53.160;6.990;2024-01-25T05:49:03;4.10;12.00
52621;DHT22;38515;53.160;6.990;2024-01-25T05:51:29;4.00;1.00
52621;DHT22;38515;53.160;6.990;2024-01-25T05:53:54;3.90;1.00
52621;DHT22;38515;53.160;6.990;2024-01-25T05:56:20;3.80;1.00
52621;DHT22;38515;53.160;6.990;2024-01-25T05:58:46;3.70;1.00
52621;DHT22;38515;53.160;6.990;2024-01-25T06:01:11;3.60;1.00
52621;DHT22;38515;53.160;6.990;2024-01-25T06:03:37;3.60;99.90
52621;DHT22;38515;53.160;6.990;2024-01-25T06:06:03;3.60;99.90
52621;DHT22;38515;53.160;6.990;2024-01-25T06:08:28;3.60;99.90
52621;DHT22;38515;53.160;6.990;2024-01-25T06:10:54;3.50;99.90
52621;DHT22;38515;53.160;6.990;2024-01-25T06:13:20;2.60;99.90
52621;DHT22;38515;53.160;6.990;2024-01-25T06:15:46;3.40;99.90
52621;DHT22;38515;53.160;6.990;2024-01-25T06:18:11;3.40;99.90
52621;DHT22;38515;53.160;6.990;2024-01-25T06:20:37;3.30;99.90
52621;DHT22;38515;53.160;6.990;2024-01-25T06:23:03;3.30;99.90
52621;DHT22;38515;53.160;6.990;2024-01-25T06:25:28;3.30;99.90
52621;DHT22;38515;53.160;6.990;2024-01-25T06:27:57;3.20;1.00
52621;DHT22;38515;53.160;6.990;2024-01-25T06:30:23;3.40;1.00
52621;DHT22;38515;53.160;6.990;2024-01-25T06:32:48;3.30;1.00
52621;DHT22;38515;53.160;6.990;2024-01-25T06:35:14;3.20;1.00
52621;DHT22;38515;53.160;6.990;2024-01-25T06:37:40;3.20;6.10
52621;DHT22;38515;53.160;6.990;2024-01-25T06:40:06;3.20;24.60
52621;DHT22;38515;53.160;6.990;2024-01-25T06:42:32;3.10;84.60
52621;DHT22;38515;53.160;6.990;2024-01-25T06:44:58;3.20;99.90
52621;DHT22;38515;53.160;6.990;2024-01-25T06:47:23;3.10;99.90
52621;DHT22;38515;53.160;6.990;2024-01-25T06:49:49;3.10;99.90
52621;DHT22;38515;53.160;6.990;2024-01-25T06:52:17;3.00;99.90
52621;DHT22;38515;53.160;6.990;2024-01-25T06:54:43;3.00;99.90
52621;DHT22;38515;53.160;6.990;2024-01-25T06:57:09;3.00;99.90
52621;DHT22;38515;53.160;6.990;2024-01-25T06:59:34;3.20;99.90
52621;DHT22;38515;53.160;6.990;2024-01-25T07:02:00;3.10;99.90
52621;DHT22;38515;53.160;6.990;2024-01-25T07:04:28;3.10;1.00
52621;DHT22;38515;53.160;6.990;2024-01-25T07:06:54;3.10;1.00
52621;DHT22;38515;53.160;6.990;2024-01-25T07:09:20;3.00;1.00
52621;DHT22;38515;53.160;6.990;2024-01-25T07:11:46;3.00;1.00
52621;DHT22;38515;53.160;6.990;2024-01-25T07:14:12;3.20;1.00
52621;DHT22;38515;53.160;6.990;2024-01-25T07:16:38;3.40;1.00
52621;DHT22;38515;53.160;6.990;2024-01-25T07:19:03;3.10;99.90
52621;DHT22;38515;53.160;6.990;2024-01-25T07:21:29;3.20;99.90
52621;DHT22;38515;53.160;6.990;2024-01-25T07:24:00;3.30;99.90
52621;DHT22;38515;53.160;6.990;2024-01-25T07:26:26;3.30;99.90
52621;DHT22;38515;53.160;6.990;2024-01-25T07:28:52;3.30;99.90
52621;DHT22;38515;53.160;6.990;2024-01-25T07:31:24;3.30;99.90
52621;DHT22;38515;53.160;6.990;2024-01-25T07:33:50;3.30;99.90
52621;DHT22;38515;53.160;6.990;2024-01-25T07:36:16;3.20;99.90
52621;DHT22;38515;53.160;6.990;2024-01-25T07:38:42;3.80;99.90
52621;DHT22;38515;53.160;6.990;2024-01-25T07:41:07;3.20;99.90
52621;DHT22;38515;53.160;6.990;2024-01-25T07:43:33;3.20;99.90
52621;DHT22;38515;53.160;6.990;2024-01-25T07:45:59;3.30;99.90
52621;DHT22;38515;53.160;6.990;2024-01-25T07:48:24;3.30;99.90
52621;DHT22;38515;53.160;6.990;2024-01-25T07:50:50;3.80;99.90
52621;DHT22;38515;53.160;6.990;2024-01-25T07:53:16;3.40;1.00
52621;DHT22;38515;53.160;6.990;2024-01-25T07:55:42;3.50;1.00
52621;DHT22;38515;53.160;6.990;2024-01-25T07:58:07;3.60;1.00
52621;DHT22;38515;53.160;6.990;2024-01-25T08:00:33;3.70;86.20
52621;DHT22;38515;53.160;6.990;2024-01-25T08:02:58;3.80;99.90
52621;DHT22;38515;53.160;6.990;2024-01-25T08:05:24;3.90;99.90
52621;DHT22;38515;53.160;6.990;2024-01-25T08:07:50;4.40;99.90
52621;DHT22;38515;53.160;6.990;2024-01-25T08:10:16;4.10;99.90
52621;DHT22;38515;53.160;6.990;2024-01-25T08:12:44;4.10;99.90
52621;DHT22;38515;53.160;6.990;2024-01-25T08:15:13;4.10;99.90
52621;DHT22;38515;53.160;6.990;2024-01-25T08:17:38;4.10;99.90
52621;DHT22;38515;53.160;6.990;2024-01-25T08:20:04;4.20;99.90
52621;DHT22;38515;53.160;6.990;2024-01-25T08:22:34;4.30;99.90
52621;DHT22;38515;53.160;6.990;2024-01-25T08:25:00;4.30;99.90
52621;DHT22;38515;53.160;6.990;2024-01-25T08:27:25;4.60;38.20
52621;DHT22;38515;53.160;6.990;2024-01-25T08:29:51;4.40;1.00
52621;DHT22;38515;53.160;6.990;2024-01-25T08:32:16;4.30;99.90
52621;DHT22;38515;53.160;6.990;2024-01-25T08:34:42;4.30;99.90
52621;DHT22;38515;53.160;6.990;2024-01-25T08:37:08;4.40;99.90
52621;DHT22;38515;53.160;6.990;2024-01-25T08:39:33;4.60;99.90
52621;DHT22;38515;53.160;6.990;2024-01-25T08:41:59;4.40;99.90
52621;DHT22;38515;53.160;6.990;2024-01-25T08:44:27;4.40;99.90
52621;DHT22;38515;53.160;6.990;2024-01-25T08:46:53;4.40;99.90
52621;DHT22;38515;53.160;6.990;2024-01-25T08:49:19;4.50;99.90
52621;DHT22;38515;53.160;6.990;2024-01-25T08:51:44;4.60;99.90
52621;DHT22;38515;53.160;6.990;2024-01-25T08:54:10;4.50;99.90
52621;DHT22;38515;53.160;6.990;2024-01-25T08:56:36;4.90;99.90
52621;DHT22;38515;53.160;6.990;2024-01-25T08:59:01;4.50;99.90
52621;DHT22;38515;53.160;6.990;2024-01-25T09:01:27;4.60;99.90
52621;DHT22;38515;53.160;6.990;2024-01-25T09:03:53;4.60;1.00
52621;DHT22;38515;53.160;6.990;2024-01-25T09:06:19;4.70;34.10
52621;DHT22;38515;53.160;6.990;2024-01-25T09:08:44;4.80;1.00
52621;DHT22;38515;53.160;6.990;2024-01-25T09:11:10;4.90;1.00
52621;DHT22;38515;53.160;6.990;2024-01-25T09:13:36;4.80;1.00
52621;DHT22;38515;53.160;6.990;2024-01-25T09:16:01;4.80;1.00
52621;DHT22;38515;53.160;6.990;2024-01-25T09:18:27;4.90;1.00
52621;DHT22;38515;53.160;6.990;2024-01-25T09:20:53;5.00;99.90
52621;DHT22;38515;53.160;6.990;2024-01-25T09:23:18;5.30;63.30
52621;DHT22;38515;53.160;6.990;2024-01-25T09:25:46;5.00;45.80
52621;DHT22;38515;53.160;6.990;2024-01-25T09:28:14;5.10;99.90
52621;DHT22;38515;53.160;6.990;2024-01-25T09:30:40;5.10;99.90
52621;DHT22;38515;53.160;6.990;2024-01-25T09:33:06;5.20;99.90
52621;DHT22;38515;53.160;6.990;2024-01-25T09:35:32;5.30;1.00
52621;DHT22;38515;53.160;6.990;2024-01-25T09:37:58;5.40;99.90
52621;DHT22;38515;53.160;6.990;2024-01-25T09:40:24;5.50;99.90
52621;DHT22;38515;53.160;6.990;2024-01-25T09:42:52;5.40;99.90
52621;DHT22;38515;53.160;6.990;2024-01-25T09:45:18;5.50;99.90
52621;DHT22;38515;53.160;6.990;2024-01-25T09:47:45;5.60;99.90
52621;DHT22;38515;53.160;6.990;2024-01-25T09:50:11;5.70;1.00
52621;DHT22;38515;53.160;6.990;2024-01-25T09:52:38;5.90;1.00
52621;DHT22;38515;53.160;6.990;2024-01-25T09:55:07;6.60;24.90
52621;DHT22;38515;53.160;6.990;2024-01-25T09:57:35;6.10;1.00
52621;DHT22;38515;53.160;6.990;2024-01-25T10:00:03;6.20;85.40
52621;DHT22;38515;53.160;6.990;2024-01-25T10:02:29;6.10;1.00
52621;DHT22;38515;53.160;6.990;2024-01-25T10:04:54;6.10;99.90
52621;DHT22;38515;53.160;6.990;2024-01-25T10:07:42;6.80;99.90
52621;DHT22;38515;53.160;6.990;2024-01-25T10:10:09;6.10;99.90
52621;DHT22;38515;53.160;6.990;2024-01-25T10:12:36;6.20;99.90
52621;DHT22;38515;53.160;6.990;2024-01-25T10:15:03;6.50;25.10
52621;DHT22;38515;53.160;6.990;2024-01-25T10:17:30;6.30;2.80
52621;DHT22;38515;53.160;6.990;2024-01-25T10:19:56;6.40;1.00
52621;DHT22;38515;53.160;6.990;2024-01-25T10:22:22;6.60;1.00
52621;DHT22;38515;53.160;6.990;2024-01-25T10:24:48;6.60;79.50
52621;DHT22;38515;53.160;6.990;2024-01-25T10:27:16;6.80;1.00
52621;DHT22;38515;53.160;6.990;2024-01-25T10:29:42;6.70;99.90
52621;DHT22;38515;53.160;6.990;2024-01-25T10:32:08;7.00;99.90
52621;DHT22;38515;53.160;6.990;2024-01-25T10:34:38;7.10;1.00
52621;DHT22;38515;53.160;6.990;2024-01-25T10:37:07;7.20;1.00
52621;DHT22;38515;53.160;6.990;2024-01-25T10:39:33;7.50;99.90
52621;DHT22;38515;53.160;6.990;2024-01-25T10:42:00;7.40;99.90
52621;DHT22;38515;53.160;6.990;2024-01-25T10:44:26;7.50;1.00
52621;DHT22;38515;53.160;6.990;2024-01-25T10:46:52;7.50;1.00
52621;DHT22;38515;53.160;6.990;2024-01-25T10:49:20;7.40;1.00
52621;DHT22;38515;53.160;6.990;2024-01-25T10:51:47;7.40;90.30
52621;DHT22;38515;53.160;6.990;2024-01-25T10:54:14;7.40;1.00
52621;DHT22;38515;53.160;6.990;2024-01-25T10:56:44;7.60;1.00
52621;DHT22;38515;53.160;6.990;2024-01-25T10:59:12;7.40;99.90
52621;DHT22;38515;53.160;6.990;2024-01-25T11:01:38;7.30;1.00
52621;DHT22;38515;53.160;6.990;2024-01-25T11:04:18;7.10;1.00
52621;DHT22;38515;53.160;6.990;2024-01-25T11:06:45;7.00;99.90
52621;DHT22;38515;53.160;6.990;2024-01-25T11:09:17;6.90;99.90
52621;DHT22;38515;53.160;6.990;2024-01-25T11:11:48;7.70;57.50
52621;DHT22;38515;53.160;6.990;2024-01-25T11:14:15;7.00;99.90
52621;DHT22;38515;53.160;6.990;2024-01-25T11:16:44;7.10;99.90
52621;DHT22;38515;53.160;6.990;2024-01-25T11:19:19;7.20;99.90
52621;DHT22;38515;53.160;6.990;2024-01-25T11:21:50;7.40;99.90
52621;DHT22;38515;53.160;6.990;2024-01-25T11:24:21;8.30;99.90
52621;DHT22;38515;53.160;6.990;2024-01-25T11:26:47;7.70;1.00
52621;DHT22;38515;53.160;6.990;2024-01-25T11:29:14;7.80;99.90
52621;DHT22;38515;53.160;6.990;2024-01-25T11:31:47;7.70;1.00
52621;DHT22;38515;53.160;6.990;2024-01-25T11:34:14;7.90;99.90
52621;DHT22;38515;53.160;6.990;2024-01-25T11:36:44;8.00;99.90
52621;DHT22;38515;53.160;6.990;2024-01-25T11:39:11;8.00;99.90
52621;DHT22;38515;53.160;6.990;2024-01-25T11:41:37;7.90;1.00
52621;DHT22;38515;53.160;6.990;2024-01-25T11:44:03;7.80;99.90
52621;DHT22;38515;53.160;6.990;2024-01-25T11:46:30;8.30;99.90
52621;DHT22;38515;53.160;6.990;2024-01-25T11:48:57;7.80;99.90
52621;DHT22;38515;53.160;6.990;2024-01-25T11:51:23;7.90;99.90
52621;DHT22;38515;53.160;6.990;2024-01-25T11:53:48;8.00;99.90
52621;DHT22;38515;53.160;6.990;2024-01-25T11:56:19;8.10;1.00
52621;DHT22;38515;53.160;6.990;2024-01-25T11:58:47;8.30;1.00
52621;DHT22;38515;53.160;6.990;2024-01-25T12:01:13;8.40;1.00
52621;DHT22;38515;53.160;6.990;2024-01-25T12:03:40;8.50;1.00
52621;DHT22;38515;53.160;6.990;2024-01-25T12:06:06;8.50;56.30
52621;DHT22;38515;53.160;6.990;2024-01-25T12:08:35;8.40;1.00
52621;DHT22;38515;53.160;6.990;2024-01-25T12:11:18;8.60;1.00
52621;DHT22;38515;53.160;6.990;2024-01-25T12:13:47;8.10;43.20
52621;DHT22;38515;53.160;6.990;2024-01-25T12:16:13;8.00;99.90
52621;DHT22;38515;53.160;6.990;2024-01-25T12:18:41;8.60;99.90
52621;DHT22;38515;53.160;6.990;2024-01-25T12:21:07;7.80;99.90
52621;DHT22;38515;53.160;6.990;2024-01-25T12:23:33;7.90;99.90
52621;DHT22;38515;53.160;6.990;2024-01-25T12:26:00;7.80;1.00
52621;DHT22;38515;53.160;6.990;2024-01-25T12:28:27;7.80;1.00
52621;DHT22;38515;53.160;6.990;2024-01-25T12:30:54;8.10;1.00
52621;DHT22;38515;53.160;6.990;2024-01-25T12:33:20;7.80;1.00
52621;DHT22;38515;53.160;6.990;2024-01-25T12:35:46;7.80;98.30
52621;DHT22;38515;53.160;6.990;2024-01-25T12:38:11;7.90;99.90
52621;DHT22;38515;53.160;6.990;2024-01-25T12:40:37;7.90;1.00
52621;DHT22;38515;53.160;6.990;2024-01-25T12:43:03;8.70;1.00
52621;DHT22;38515;53.160;6.990;2024-01-25T12:45:28;7.90;1.00
52621;DHT22;38515;53.160;6.990;2024-01-25T12:47:54;7.90;99.90
52621;DHT22;38515;53.160;6.990;2024-01-25T12:50:20;7.90;1.00
52621;DHT22;38515;53.160;6.990;2024-01-25T12:52:46;7.90;1.00
52621;DHT22;38515;53.160;6.990;2024-01-25T12:55:12;8.00;99.90
52621;DHT22;38515;53.160;6.990;2024-01-25T12:57:37;8.70;99.90
52621;DHT22;38515;53.160;6.990;2024-01-25T13:00:03;8.40;1.00
52621;DHT22;38515;53.160;6.990;2024-01-25T13:02:29;8.50;99.90
52621;DHT22;38515;53.160;6.990;2024-01-25T13:04:55;8.60;1.00
52621;DHT22;38515;53.160;6.990;2024-01-25T13:07:21;9.00;1.00
52621;DHT22;38515;53.160;6.990;2024-01-25T13:09:46;8.90;1.00
52621;DHT22;38515;53.160;6.990;2024-01-25T13:12:12;8.90;1.00
52621;DHT22;38515;53.160;6.990;2024-01-25T13:14:38;8.90;99.90
52621;DHT22;38515;53.160;6.990;2024-01-25T13:17:04;9.30;99.90
52621;DHT22;38515;53.160;6.990;2024-01-25T13:19:33;8.80;99.90
52621;DHT22;38515;53.160;6.990;2024-01-25T13:21:59;8.90;9.00
52621;DHT22;38515;53.160;6.990;2024-01-25T13:24:24;8.70;1.00
52621;DHT22;38515;53.160;6.990;2024-01-25T13:26:50;8.70;1.00
52621;DHT22;38515;53.160;6.990;2024-01-25T13:29:16;8.50;1.00
52621;DHT22;38515;53.160;6.990;2024-01-25T13:31:41;8.50;1.00
52621;DHT22;38515;53.160;6.990;2024-01-25T13:34:07;8.30;99.90
52621;DHT22;38515;53.160;6.990;2024-01-25T13:36:33;8.30;97.20
52621;DHT22;38515;53.160;6.990;2024-01-25T13:38:58;8.20;1.00
52621;DHT22;38515;53.160;6.990;2024-01-25T13:41:24;8.20;1.00
52621;DHT22;38515;53.160;6.990;2024-01-25T13:43:50;8.20;1.00
52621;DHT22;38515;53.160;6.990;2024-01-25T13:46:16;8.10;1.00
52621;DHT22;38515;53.160;6.990;2024-01-25T13:48:41;8.40;99.90
52621;DHT22;38515;53.160;6.990;2024-01-25T13:51:07;8.00;99.90
52621;DHT22;38515;53.160;6.990;2024-01-25T13:53:33;8.00;99.90
52621;DHT22;38515;53.160;6.990;2024-01-25T13:55:59;8.10;1.00
52621;DHT22;38515;53.160;6.990;2024-01-25T13:58:25;8.20;1.00
52621;DHT22;38515;53.160;6.990;2024-01-25T14:00:51;8.10;99.90
52621;DHT22;38515;53.160;6.990;2024-01-25T14:03:16;8.10;1.00
52621;DHT22;38515;53.160;6.990;2024-01-25T14:05:45;8.30;1.00
52621;DHT22;38515;53.160;6.990;2024-01-25T14:08:11;8.40;1.00
52621;DHT22;38515;53.160;6.990;2024-01-25T14:10:36;9.00;1.00
52621;DHT22;38515;53.160;6.990;2024-01-25T14:13:02;8.60;83.70
52621;DHT22;38515;53.160;6.990;2024-01-25T14:15:28;8.60;87.30
52621;DHT22;38515;53.160;6.990;2024-01-25T14:17:54;8.70;1.00
52621;DHT22;38515;53.160;6.990;2024-01-25T14:20:20;8.70;99.90
52621;DHT22;38515;53.160;6.990;2024-01-25T14:22:46;8.60;99.90
52621;DHT22;38515;53.160;6.990;2024-01-25T14:25:11;8.60;99.90
52621;DHT22;38515;53.160;6.990;2024-01-25T14:27:37;8.50;15.40
52621;DHT22;38515;53.160;6.990;2024-01-25T14:30:03;8.50;85.60
52621;DHT22;38515;53.160;6.990;2024-01-25T14:32:30;8.40;48.20
52621;DHT22;38515;53.160;6.990;2024-01-25T14:34:55;8.40;68.50
52621;DHT22;38515;53.160;6.990;2024-01-25T14:37:21;8.60;99.90
52621;DHT22;38515;53.160;6.990;2024-01-25T14:39:47;8.40;99.90
52621;DHT22;38515;53.160;6.990;2024-01-25T14:42:12;8.60;55.80
52621;DHT22;38515;53.160;6.990;2024-01-25T14:44:39;8.30;1.00
52621;DHT22;38515;53.160;6.990;2024-01-25T14:47:08;8.30;1.00
52621;DHT22;38515;53.160;6.990;2024-01-25T14:49:33;8.20;1.00
52621;DHT22;38515;53.160;6.990;2024-01-25T14:52:00;8.20;1.00
52621;DHT22;38515;53.160;6.990;2024-01-25T14:54:26;8.00;99.90
52621;DHT22;38515;53.160;6.990;2024-01-25T14:56:51;7.80;99.90
52621;DHT22;38515;53.160;6.990;2024-01-25T14:59:18;7.80;46.60
52621;DHT22;38515;53.160;6.990;2024-01-25T15:01:47;7.60;1.00
52621;DHT22;38515;53.160;6.990;2024-01-25T15:04:13;7.40;99.90
52621;DHT22;38515;53.160;6.990;2024-01-25T15:06:41;7.30;99.90
52621;DHT22;38515;53.160;6.990;2024-01-25T15:09:07;7.20;1.00
52621;DHT22;38515;53.160;6.990;2024-01-25T15:11:33;7.60;1.00
52621;DHT22;38515;53.160;6.990;2024-01-25T15:13:58;6.90;99.90
52621;DHT22;38515;53.160;6.990;2024-01-25T15:16:25;6.80;1.00
52621;DHT22;38515;53.160;6.990;2024-01-25T15:18:50;6.70;99.90
52621;DHT22;38515;53.160;6.990;2024-01-25T15:21:16;6.70;99.90
52621;DHT22;38515;53.160;6.990;2024-01-25T15:23:41;6.90;99.90
52621;DHT22;38515;53.160;6.990;2024-01-25T15:26:07;6.50;1.00
52621;DHT22;38515;53.160;6.990;2024-01-25T15:28:33;6.50;99.90
52621;DHT22;38515;53.160;6.990;2024-01-25T15:31:00;6.30;99.90
52621;DHT22;38515;53.160;6.990;2024-01-25T15:33:26;6.50;99.90
52621;DHT22;38515;53.160;6.990;2024-01-25T15:35:52;6.20;99.90
52621;DHT22;38515;53.160;6.990;2024-01-25T15:38:17;6.10;1.00
52621;DHT22;38515;53.160;6.990;2024-01-25T15:40:44;6.00;1.00
52621;DHT22;38515;53.160;6.990;2024-01-25T15:43:10;6.00;99.90
52621;DHT22;38515;53.160;6.990;2024-01-25T15:45:36;6.00;1.00